Time;durP1;ratioP1;P1;durP2;ratioP2;P2;SDS_P1;SDS_P2;PMS_P1;PMS_P2;Temp;Humidity;BMP_temperature;BMP_pressure;BME280_temperature;BME280_humidity;BME280_pressure;Samples;Min_cycle;Max_cycle;Signal;HPM_P1;HPM_P2
2022/05/25 00:00:42;;;;;;;1.48;0.60;;;22.00;50.50;21.10;100794.00;;;;5061838;28;20044;-71
2022/05/25 00:03:29;;;;;;;1.23;0.65;;;22.00;50.60;21.10;100791.00;;;;5063673;28;20040;-70
2022/05/25 00:06:16;;;;;;;2.38;0.88;;;22.00;50.60;21.10;100796.00;;;;5059529;28;20045;-70
2022/05/25 00:09:03;;;;;;;1.23;1.00;;;21.90;50.50;21.10;100795.00;;;;5056414;28;20048;-70
2022/05/25 00:11:49;;;;;;;0.95;0.70;;;21.90;50.50;21.10;100792.00;;;;5059395;28;20041;-71
2022/05/25 00:14:36;;;;;;;0.65;0.65;;;22.00;50.50;21.10;100794.00;;;;5060593;28;20041;-71
2022/05/25 00:17:22;;;;;;;1.65;0.70;;;21.90;50.50;21.10;100790.00;;;;5048390;28;20046;-70
2022/05/25 00:20:09;;;;;;;1.10;0.68;;;21.90;50.60;21.10;100797.00;;;;5054057;28;20048;-71
2022/05/25 00:22:56;;;;;;;0.90;0.70;;;21.90;50.70;21.10;100792.00;;;;5072626;28;20047;-70
2022/05/25 00:25:42;;;;;;;0.70;0.70;;;21.90;50.60;21.10;100799.00;;;;5047261;28;20044;-70
2022/05/25 00:28:28;;;;;;;1.48;0.68;;;21.90;50.50;21.10;100800.00;;;;5059442;28;20059;-70
2022/05/25 00:31:14;;;;;;;0.98;0.60;;;21.90;50.60;21.10;100799.00;;;;5044990;28;20044;-71
2022/05/25 00:34:00;;;;;;;0.40;0.40;;;21.90;50.60;21.10;100797.00;;;;5046186;28;20032;-70
2022/05/25 00:36:46;;;;;;;0.70;0.65;;;21.90;50.50;21.10;100801.00;;;;5060648;28;20032;-71
2022/05/25 00:39:32;;;;;;;0.70;0.60;;;22.00;50.50;21.10;100802.00;;;;5055671;28;20055;-71
2022/05/25 00:42:19;;;;;;;1.80;0.70;;;21.90;50.60;21.10;100806.00;;;;5045980;28;20032;-71
2022/05/25 00:45:07;;;;;;;0.70;0.65;;;21.90;50.50;21.10;100801.00;;;;5058560;28;20049;-71
2022/05/25 00:47:53;;;;;;;0.63;0.52;;;21.90;50.60;21.10;100804.00;;;;5057579;28;20044;-71
2022/05/25 00:54:36;;;;;;;0.98;0.60;;;21.90;50.60;21.00;100807.00;;;;5038897;28;20039;-71
2022/05/25 00:57:34;;;;;;;0.98;0.60;;;21.90;50.60;21.00;100798.00;;;;5050209;28;20489;-70
2022/05/25 01:00:26;;;;;;;0.77;0.52;;;21.90;50.60;21.00;100800.00;;;;5050498;28;20036;-70
2022/05/25 01:03:12;;;;;;;1.95;0.60;;;21.90;50.60;21.00;100808.00;;;;5048203;28;20462;-71
2022/05/25 01:06:19;;;;;;;0.57;0.55;;;21.90;50.50;21.00;100818.00;;;;5060386;28;20080;-71
2022/05/25 01:09:41;;;;;;;0.68;0.50;;;21.90;50.50;21.00;100818.00;;;;5046922;28;20486;-71
2022/05/25 01:12:56;;;;;;;0.50;0.50;;;21.90;50.60;21.00;100819.00;;;;5051912;28;20119;-70
2022/05/25 01:16:05;;;;;;;3.42;0.80;;;21.90;51.20;21.00;100817.00;;;;5053777;28;20115;-71
2022/05/25 01:19:40;;;;;;;1.75;1.05;;;21.90;50.50;21.00;100814.00;;;;5047851;28;20044;-71
2022/05/25 01:22:57;;;;;;;0.70;0.50;;;21.80;50.50;21.00;100818.00;;;;5064729;28;20055;-71
2022/05/25 01:26:20;;;;;;;0.60;0.60;;;21.80;50.50;21.00;100825.00;;;;5063507;28;20047;-71
2022/05/25 01:29:19;;;;;;;1.85;0.95;;;21.80;50.60;20.90;100822.00;;;;5057831;28;20083;-71
2022/05/25 01:32:31;;;;;;;0.93;0.60;;;21.80;50.60;20.90;100823.00;;;;5053380;28;20032;-70
2022/05/25 01:35:43;;;;;;;1.17;0.88;;;21.80;50.60;20.90;100822.00;;;;5064794;28;20433;-70
2022/05/25 01:38:55;;;;;;;1.25;0.85;;;21.80;50.60;20.90;100828.00;;;;5064068;28;20041;-70
2022/05/25 01:42:01;;;;;;;0.95;0.70;;;21.80;50.60;20.90;100831.00;;;;5077149;28;20048;-70
2022/05/25 01:44:51;;;;;;;1.45;0.70;;;21.80;50.60;20.90;100833.00;;;;5048310;28;20051;-70
2022/05/25 01:47:39;;;;;;;0.82;0.73;;;21.70;50.40;20.90;100838.00;;;;5063707;28;20037;-70
2022/05/25 01:50:29;;;;;;;;;;;21.80;50.70;20.90;100831.00;;;;5056004;28;20599;-70
2022/05/25 01:53:16;;;;;;;2.17;0.93;;;21.80;50.60;20.90;100834.00;;;;5062315;28;19916;-70
2022/05/25 01:56:06;;;;;;;0.87;0.60;;;21.80;50.60;20.90;100830.00;;;;5051868;28;20393;-71
2022/05/25 01:58:56;;;;;;;1.20;0.90;;;21.70;50.40;20.90;100837.00;;;;5040686;28;20159;-70
2022/05/25 02:05:11;;;;;;;2.05;1.45;;;21.70;50.40;20.90;100839.00;;;;5061455;28;20075;-70
2022/05/25 02:08:34;;;;;;;1.02;0.82;;;21.80;50.50;20.90;100844.00;;;;5050641;28;20401;-70
2022/05/25 02:11:32;;;;;;;0.60;0.60;;;21.70;50.50;20.90;100836.00;;;;5070553;28;20044;-70
2022/05/25 02:14:39;;;;;;;0.80;0.80;;;21.70;50.50;20.90;100836.00;;;;5050045;28;20115;-70
2022/05/25 02:17:53;;;;;;;0.70;0.70;;;21.70;50.60;20.90;100834.00;;;;5061913;28;20058;-70
2022/05/25 02:21:01;;;;;;;1.48;0.93;;;21.70;50.50;20.90;100844.00;;;;5060630;28;20482;-70
2022/05/25 02:24:12;;;;;;;1.55;0.90;;;21.70;50.40;20.90;100852.00;;;;5049566;28;20048;-70
2022/05/25 02:27:30;;;;;;;0.60;0.60;;;21.70;50.40;20.90;100854.00;;;;5050356;28;20102;-70
2022/05/25 02:30:20;;;;;;;0.98;0.85;;;21.70;50.40;20.80;100860.00;;;;5037254;28;20066;-70
2022/05/25 02:33:15;;;;;;;1.25;0.73;;;21.70;50.30;20.80;100852.00;;;;5052107;28;20036;-70
2022/05/25 02:36:01;;;;;;;2.45;0.90;;;21.70;50.40;20.80;100860.00;;;;5049240;28;20044;-70
2022/05/25 02:38:47;;;;;;;1.13;0.60;;;21.70;50.30;20.80;100856.00;;;;5057644;28;20037;-70
2022/05/25 02:41:35;;;;;;;1.15;1.05;;;21.70;50.30;20.80;100855.00;;;;5056678;28;20037;-70
2022/05/25 02:44:25;;;;;;;1.40;0.73;;;21.60;50.20;20.80;100853.00;;;;5059322;28;20044;-70
2022/05/25 02:47:11;;;;;;;2.08;0.93;;;21.70;50.20;20.80;100854.00;;;;5065330;28;20036;-70
2022/05/25 02:49:57;;;;;;;0.82;0.75;;;21.70;50.30;20.80;100856.00;;;;5048871;28;20041;-70
2022/05/25 02:52:43;;;;;;;0.85;0.80;;;21.70;50.20;20.80;100861.00;;;;5061813;28;20039;-70
2022/05/25 02:55:31;;;;;;;1.33;0.77;;;21.60;50.20;20.80;100868.00;;;;5058084;28;20032;-70
2022/05/25 02:58:17;;;;;;;1.33;0.80;;;21.60;50.20;20.80;100860.00;;;;5064678;28;20090;-70
2022/05/25 03:01:04;;;;;;;1.13;0.90;;;21.60;50.20;20.80;100866.00;;;;5056488;28;20048;-70
2022/05/25 03:03:50;;;;;;;2.23;1.10;;;21.60;50.20;20.80;100867.00;;;;5044098;28;20268;-70
2022/05/25 03:06:36;;;;;;;1.10;1.00;;;21.60;50.20;20.80;100872.00;;;;5062900;28;20878;-70
2022/05/25 03:09:22;;;;;;;1.42;0.90;;;21.60;50.20;20.80;100867.00;;;;5056941;28;20076;-70
2022/05/25 03:12:08;;;;;;;0.95;0.73;;;21.60;50.20;20.80;100875.00;;;;5061210;28;20048;-70
2022/05/25 03:14:54;;;;;;;0.90;0.70;;;21.60;50.20;20.80;100874.00;;;;5051013;28;20047;-70
2022/05/25 03:17:40;;;;;;;1.55;0.93;;;21.60;50.30;20.80;100872.00;;;;5062339;28;20048;-70
2022/05/25 03:20:27;;;;;;;0.70;0.68;;;21.60;50.20;20.80;100865.00;;;;5058538;28;20491;-70
2022/05/25 03:23:17;;;;;;;0.90;0.77;;;21.60;50.20;20.80;100867.00;;;;5057548;28;20429;-70
2022/05/25 03:26:03;;;;;;;1.45;1.00;;;21.60;50.20;20.80;100873.00;;;;5056115;28;20048;-70
2022/05/25 03:28:49;;;;;;;2.05;1.02;;;21.60;50.20;20.80;100876.00;;;;5062136;28;20055;-70
2022/05/25 03:31:38;;;;;;;0.93;0.80;;;21.60;50.30;20.70;100883.00;;;;5061978;28;20041;-70
2022/05/25 03:34:24;;;;;;;1.95;0.95;;;21.60;50.30;20.70;100889.00;;;;5044064;28;20068;-71
2022/05/25 03:37:10;;;;;;;1.08;0.98;;;21.50;50.10;20.70;100893.00;;;;5060278;28;20105;-70
2022/05/25 03:39:56;;;;;;;0.80;0.80;;;21.60;50.20;20.70;100898.00;;;;5054747;28;20045;-71
2022/05/25 03:43:04;;;;;;;1.17;1.08;;;21.50;50.10;20.70;100899.00;;;;5059375;28;20041;-70
2022/05/25 03:45:50;;;;;;;1.17;1.00;;;21.60;50.10;20.70;100908.00;;;;5047914;28;20041;-71
2022/05/25 03:48:36;;;;;;;1.10;0.95;;;21.50;50.00;20.70;100913.00;;;;5062776;28;20085;-71
2022/05/25 03:51:22;;;;;;;0.88;0.88;;;21.50;50.00;20.70;100916.00;;;;5059147;28;20047;-70
2022/05/25 03:54:09;;;;;;;1.05;0.98;;;21.60;50.00;20.70;100908.00;;;;5068474;28;20041;-71
2022/05/25 03:56:55;;;;;;;5.45;0.90;;;21.50;50.00;20.70;100916.00;;;;5075625;28;20041;-70
2022/05/25 03:59:41;;;;;;;1.88;1.10;;;21.50;50.00;20.70;100918.00;;;;5056819;28;20098;-71
2022/05/25 04:02:28;;;;;;;1.25;0.90;;;21.50;49.90;20.70;100921.00;;;;5065247;28;20051;-71
2022/05/25 04:05:14;;;;;;;1.95;1.10;;;21.60;50.00;20.70;100916.00;;;;5056865;28;20039;-71
2022/05/25 04:08:01;;;;;;;1.13;1.02;;;21.50;49.90;20.70;100923.00;;;;5074599;28;20099;-71
2022/05/25 04:10:47;;;;;;;1.27;1.15;;;21.50;49.90;20.70;100920.00;;;;5061128;28;20345;-70
2022/05/25 04:13:33;;;;;;;1.10;1.00;;;21.50;50.20;20.70;100928.00;;;;5058916;28;20044;-71
2022/05/25 04:16:19;;;;;;;1.80;1.00;;;21.50;49.80;20.70;100924.00;;;;5062991;28;20043;-71
2022/05/25 04:19:05;;;;;;;1.30;1.20;;;21.50;49.80;20.70;100922.00;;;;5042760;28;20041;-70
2022/05/25 04:21:51;;;;;;;2.40;1.02;;;21.50;49.80;20.70;100928.00;;;;5059717;28;20456;-71
2022/05/25 04:24:37;;;;;;;1.98;1.23;;;21.50;49.80;20.70;100923.00;;;;5059494;28;20036;-70
2022/05/25 04:27:23;;;;;;;1.90;1.48;;;21.50;49.80;20.70;100924.00;;;;5061621;28;20455;-70
2022/05/25 04:30:13;;;;;;;2.08;1.17;;;21.50;49.70;20.70;100923.00;;;;5060731;28;20044;-71
2022/05/25 04:32:59;;;;;;;1.58;1.20;;;21.50;49.70;20.70;100920.00;;;;5047410;28;20114;-71
2022/05/25 04:35:45;;;;;;;1.42;1.33;;;21.50;49.70;20.70;100918.00;;;;5061802;28;20070;-71
2022/05/25 04:38:31;;;;;;;2.85;1.38;;;21.50;49.70;20.70;100925.00;;;;5081164;28;20204;-71
2022/05/25 04:41:17;;;;;;;3.67;1.38;;;21.50;49.60;20.70;100926.00;;;;5058558;28;20037;-71
2022/05/25 04:44:04;;;;;;;1.52;1.35;;;21.50;49.70;20.70;100926.00;;;;5061913;28;20071;-70
2022/05/25 04:46:50;;;;;;;1.52;1.15;;;21.50;49.60;20.70;100930.00;;;;5058168;28;20028;-71
2022/05/25 04:49:36;;;;;;;1.40;1.30;;;21.60;49.70;20.70;100931.00;;;;5058522;28;20123;-71
2022/05/25 04:52:22;;;;;;;1.90;1.45;;;21.50;49.60;20.70;100931.00;;;;5063290;28;20039;-70
2022/05/25 04:55:09;;;;;;;2.17;1.40;;;21.50;49.60;20.70;100939.00;;;;5047805;28;20110;-70
2022/05/25 04:57:55;;;;;;;1.83;1.65;;;21.50;49.70;20.70;100939.00;;;;5050182;28;20041;-70
2022/05/25 05:00:41;;;;;;;1.30;1.20;;;21.50;49.70;20.70;100939.00;;;;5059904;28;20374;-70
2022/05/25 05:03:28;;;;;;;2.35;1.30;;;21.50;49.60;20.70;100938.00;;;;5063330;28;20068;-70
2022/05/25 05:06:14;;;;;;;1.40;1.30;;;21.50;49.50;20.70;100945.00;;;;5065836;28;20094;-70
2022/05/25 05:09:00;;;;;;;1.60;1.50;;;21.50;49.50;20.70;100940.00;;;;5057916;28;20041;-70
2022/05/25 05:11:47;;;;;;;2.88;1.40;;;21.60;50.30;20.70;100941.00;;;;5065123;28;20054;-70
2022/05/25 05:14:33;;;;;;;2.17;1.23;;;21.60;49.60;20.70;100939.00;;;;5043884;28;20036;-70
2022/05/25 05:17:19;;;;;;;1.35;1.25;;;21.60;49.60;20.70;100939.00;;;;5066153;28;20444;-70
2022/05/25 05:20:06;;;;;;;2.47;1.48;;;21.50;49.60;20.70;100941.00;;;;5047215;28;20040;-70
2022/05/25 05:22:52;;;;;;;2.00;1.60;;;21.60;49.60;20.70;100947.00;;;;5047214;28;20508;-71
2022/05/25 05:25:38;;;;;;;3.83;2.20;;;21.60;49.60;20.70;100947.00;;;;5064914;28;20040;-70
2022/05/25 05:28:30;;;;;;;3.50;1.77;;;21.60;49.60;20.70;100942.00;;;;5057526;28;20610;-70
2022/05/25 05:31:16;;;;;;;2.28;1.88;;;21.60;50.20;20.70;100945.00;;;;5069880;28;20116;-70
2022/05/25 05:34:02;;;;;;;2.90;1.70;;;21.60;49.60;20.70;100945.00;;;;5062379;28;20150;-70
2022/05/25 05:37:03;;;;;;;2.83;1.70;;;21.60;49.50;20.70;100948.00;;;;5061461;28;20032;-70
2022/05/25 05:39:51;;;;;;;2.65;1.52;;;21.60;49.60;20.70;100948.00;;;;5071751;28;20521;-70
2022/05/25 05:42:39;;;;;;;2.72;1.58;;;21.60;49.70;20.70;100947.00;;;;5050634;28;20043;-70
2022/05/25 05:45:31;;;;;;;2.80;1.88;;;21.60;49.60;20.70;100944.00;;;;5059294;28;20059;-70
2022/05/25 05:48:20;;;;;;;2.10;1.63;;;21.60;49.60;20.70;100951.00;;;;5040852;28;20047;-70
2022/05/25 05:51:06;;;;;;;3.47;1.80;;;21.60;49.60;20.70;100945.00;;;;5062288;28;20040;-71
2022/05/25 05:53:52;;;;;;;3.22;2.20;;;21.60;49.60;20.70;100944.00;;;;5072500;28;20036;-71
2022/05/25 05:56:38;;;;;;;2.53;1.90;;;21.60;49.60;20.70;100951.00;;;;5047321;28;20029;-71
2022/05/25 05:59:24;;;;;;;2.50;2.28;;;21.60;49.60;20.70;100955.00;;;;5048670;28;20921;-71
2022/05/25 06:02:10;;;;;;;2.65;2.00;;;21.60;49.70;20.70;100962.00;;;;5050144;28;20480;-71
2022/05/25 06:04:56;;;;;;;2.10;1.90;;;21.60;49.60;20.70;100957.00;;;;5061280;28;20041;-71
2022/05/25 06:07:42;;;;;;;2.20;2.00;;;21.60;49.70;20.70;100963.00;;;;5065224;28;20497;-71
2022/05/25 06:10:28;;;;;;;3.70;1.95;;;21.60;49.60;20.70;100972.00;;;;5060152;28;20376;-71
2022/05/25 06:13:14;;;;;;;3.78;1.90;;;21.60;49.60;20.70;100959.00;;;;5062429;28;20040;-71
2022/05/25 06:22:13;;;;;;;2.35;2.05;;;21.60;49.60;20.70;100975.00;;;;5060897;28;20040;-71
2022/05/25 06:24:59;;;;;;;2.42;2.13;;;21.60;49.50;20.70;100975.00;;;;5043117;28;20413;-71
2022/05/25 06:27:45;;;;;;;1.90;1.70;;;21.60;49.60;20.70;100977.00;;;;5078025;28;20512;-71
2022/05/25 06:30:31;;;;;;;4.22;2.13;;;21.60;49.60;20.70;100974.00;;;;5061027;28;20053;-71
2022/05/25 06:33:17;;;;;;;4.10;1.88;;;21.60;49.60;20.70;100969.00;;;;5065553;28;20037;-71
2022/05/25 06:36:16;;;;;;;2.97;2.00;;;21.60;49.60;20.70;100978.00;;;;5065983;28;20037;-71
2022/05/25 06:39:03;;;;;;;3.45;2.20;;;21.60;49.60;20.70;100974.00;;;;5059323;28;20051;-71
2022/05/25 06:41:49;;;;;;;3.80;2.30;;;21.60;49.50;20.60;100978.00;;;;5065184;28;20036;-71
2022/05/25 06:44:35;;;;;;;2.20;1.98;;;21.60;49.40;20.60;100983.00;;;;5072529;28;20048;-71
2022/05/25 06:47:21;;;;;;;3.70;2.13;;;21.60;49.50;20.60;100976.00;;;;5047095;28;20421;-71
2022/05/25 06:50:07;;;;;;;4.05;2.60;;;21.60;49.40;20.60;100984.00;;;;5062129;28;20063;-71
2022/05/25 06:52:53;;;;;;;5.03;2.95;;;21.60;49.20;20.60;100988.00;;;;5041764;28;20446;-71
2022/05/25 06:55:39;;;;;;;3.60;2.55;;;21.60;49.10;20.60;100984.00;;;;5060058;28;20033;-71
2022/05/25 06:58:25;;;;;;;3.25;2.10;;;21.60;49.20;20.60;100981.00;;;;5061911;28;20044;-70
2022/05/25 07:01:11;;;;;;;5.68;2.65;;;21.60;50.00;20.50;100981.00;;;;5057810;28;20048;-70
2022/05/25 07:03:57;;;;;;;4.13;2.72;;;21.60;49.10;20.50;100978.00;;;;5043513;28;20137;-71
2022/05/25 07:06:44;;;;;;;3.70;2.40;;;21.60;49.20;20.50;100986.00;;;;5071515;28;20051;-70
2022/05/25 07:09:33;;;;;;;4.70;2.33;;;21.60;49.20;20.50;100979.00;;;;5061330;28;20509;-70
2022/05/25 07:12:19;;;;;;;5.25;3.15;;;21.60;49.40;20.50;100979.00;;;;5061095;28;20043;-70
2022/05/25 07:15:06;;;;;;;4.95;3.65;;;21.60;49.20;20.50;100984.00;;;;5040160;28;20040;-71
2022/05/25 07:17:52;;;;;;;6.22;3.70;;;21.60;49.30;20.50;100990.00;;;;5063705;28;20043;-71
2022/05/25 07:20:38;;;;;;;4.65;3.30;;;21.50;49.20;20.50;101001.00;;;;5061204;28;20397;-70
2022/05/25 07:23:24;;;;;;;5.10;3.58;;;21.60;49.30;20.50;101000.00;;;;5063337;28;20045;-71
2022/05/25 07:26:10;;;;;;;5.32;3.38;;;21.60;49.30;20.50;100995.00;;;;5047573;28;20513;-71
2022/05/25 07:28:56;;;;;;;5.90;4.07;;;21.60;49.30;20.50;101002.00;;;;5058239;28;20110;-71
2022/05/25 07:31:51;;;;;;;4.82;3.28;;;21.50;49.10;20.50;100987.00;;;;5052494;28;20482;-71
2022/05/25 07:34:42;;;;;;;6.05;4.28;;;21.50;49.20;20.50;100998.00;;;;5047468;28;20036;-71
2022/05/25 07:37:33;;;;;;;5.80;4.05;;;21.60;49.20;20.50;101001.00;;;;5050456;28;20044;-70
2022/05/25 07:40:31;;;;;;;7.05;4.13;;;21.60;49.30;20.50;101007.00;;;;5045538;28;20040;-70
2022/05/25 07:43:19;;;;;;;5.95;4.30;;;21.50;49.40;20.50;101001.00;;;;5061804;28;20115;-70
2022/05/25 07:46:05;;;;;;;5.45;3.85;;;21.50;49.30;20.50;101005.00;;;;5072150;28;20047;-70
2022/05/25 07:48:51;;;;;;;7.32;4.55;;;21.50;49.30;20.50;101007.00;;;;5058849;28;20044;-70
2022/05/25 07:51:38;;;;;;;6.05;4.22;;;21.50;49.20;20.40;101000.00;;;;5067410;28;20044;-70
2022/05/25 07:54:24;;;;;;;6.72;3.95;;;21.50;49.20;20.40;101003.00;;;;5048310;28;20040;-71
2022/05/25 07:57:10;;;;;;;4.45;3.60;;;21.50;49.10;20.40;101010.00;;;;5046361;28;20037;-70
2022/05/25 07:59:56;;;;;;;5.85;3.75;;;21.50;49.00;20.40;101004.00;;;;5071015;28;20036;-70
2022/05/25 08:05:54;;;;;;;3.75;3.05;;;21.50;49.00;20.40;101002.00;;;;5050114;28;20541;-70
2022/05/25 08:08:42;;;;;;;5.78;3.40;;;21.50;49.00;20.40;100995.00;;;;5061904;28;20047;-70
2022/05/25 08:11:30;;;;;;;5.60;3.15;;;21.50;49.00;20.40;101003.00;;;;5068526;28;20478;-70
2022/05/25 08:14:16;;;;;;;4.47;3.10;;;21.50;48.90;20.40;101000.00;;;;5066024;28;20049;-70
2022/05/25 08:17:04;;;;;;;4.65;3.10;;;21.40;48.80;20.40;101004.00;;;;5067902;28;20036;-70
2022/05/25 08:19:50;;;;;;;4.82;3.20;;;21.50;48.80;20.40;101002.00;;;;5052352;28;20037;-70
2022/05/25 08:22:39;;;;;;;3.97;3.20;;;21.50;48.90;20.40;101005.00;;;;5054970;28;20055;-70
2022/05/25 08:25:25;;;;;;;6.30;3.20;;;21.40;48.80;20.40;101000.00;;;;5053215;28;20044;-70
2022/05/25 08:28:11;;;;;;;3.25;2.75;;;21.40;48.70;20.40;100999.00;;;;5063174;28;20569;-70
2022/05/25 08:30:58;;;;;;;3.85;2.80;;;21.40;48.70;20.40;100997.00;;;;5063157;28;20086;-70
2022/05/25 08:33:44;;;;;;;5.15;3.15;;;21.40;48.60;20.40;101001.00;;;;5053649;28;20059;-70
2022/05/25 08:36:30;;;;;;;5.47;2.30;;;21.40;48.60;20.40;101003.00;;;;5062987;28;20037;-71
2022/05/25 08:39:16;;;;;;;5.35;2.70;;;21.50;48.80;20.40;101005.00;;;;5061531;28;20040;-70
2022/05/25 08:42:08;;;;;;;5.05;2.40;;;21.50;48.60;20.40;101000.00;;;;5066719;28;20036;-70
2022/05/25 08:44:54;;;;;;;4.00;2.45;;;21.40;49.20;20.40;101002.00;;;;5053333;28;20049;-70
2022/05/25 08:47:51;;;;;;;3.17;1.88;;;21.50;48.60;20.40;101013.00;;;;5052145;28;20063;-70
2022/05/25 08:50:37;;;;;;;3.92;2.20;;;21.40;49.30;20.40;100999.00;;;;5062860;28;20052;-71
2022/05/25 08:53:24;;;;;;;4.40;1.90;;;21.50;48.90;20.40;101000.00;;;;5079613;28;20036;-70
2022/05/25 08:56:37;;;;;;;2.33;1.63;;;21.60;48.70;20.40;101006.00;;;;5066017;28;20040;-70
2022/05/25 09:00:15;;;;;;;1.98;1.65;;;21.50;48.40;20.40;101007.00;;;;5062584;28;20118;-70
2022/05/25 09:03:51;;;;;;;2.33;1.27;;;21.50;49.30;20.40;101004.00;;;;5057900;28;20051;-70
2022/05/25 09:07:16;;;;;;;1.58;1.30;;;21.50;48.20;20.40;101000.00;;;;5063523;28;20162;-70
2022/05/25 09:10:03;;;;;;;2.45;1.40;;;21.50;48.10;20.40;101007.00;;;;5053674;28;20037;-70
2022/05/25 09:12:56;;;;;;;1.75;1.20;;;21.50;48.30;20.40;101003.00;;;;5050183;28;20525;-70
2022/05/25 09:19:17;;;;;;;2.15;1.00;;;21.50;48.20;20.50;100997.00;;;;5064013;28;20311;-70
2022/05/25 09:22:10;;;;;;;3.40;1.02;;;21.50;48.30;20.50;101014.00;;;;5064471;28;20037;-70
2022/05/25 09:24:58;;;;;;;1.42;0.80;;;21.50;48.00;20.50;101008.00;;;;5056485;28;20068;-70
2022/05/25 09:27:52;;;;;;;1.75;0.77;;;21.50;48.00;20.50;101004.00;;;;5053962;28;20436;-70
2022/05/25 09:30:46;;;;;;;2.80;0.90;;;21.50;48.00;20.50;101015.00;;;;5062640;28;20448;-70
2022/05/25 09:33:49;;;;;;;1.58;0.90;;;21.50;47.80;20.50;101001.00;;;;5061061;28;20570;-71
2022/05/25 09:36:50;;;;;;;1.55;0.60;;;21.60;47.80;20.50;101024.00;;;;5061418;28;20040;-70
2022/05/25 09:39:42;;;;;;;1.13;0.60;;;21.60;47.80;20.50;101014.00;;;;5051423;28;20048;-70
2022/05/25 09:42:33;;;;;;;2.53;0.60;;;21.60;47.50;20.50;101014.00;;;;5076154;28;20539;-70
2022/05/25 09:45:19;;;;;;;0.52;0.52;;;21.60;47.60;20.50;101014.00;;;;5051341;28;20102;-70
2022/05/25 09:48:24;;;;;;;1.08;0.57;;;21.60;47.50;20.50;101007.00;;;;5043802;28;20040;-70
2022/05/25 09:51:36;;;;;;;1.95;0.75;;;21.60;47.50;20.50;101017.00;;;;5068195;28;20554;-70
2022/05/25 09:54:36;;;;;;;1.92;0.60;;;21.60;47.50;20.50;101022.00;;;;5074855;28;20043;-71
2022/05/25 09:57:52;;;;;;;1.80;0.73;;;21.60;47.50;20.50;101016.00;;;;5055514;28;20068;-70
2022/05/25 10:01:04;;;;;;;0.68;0.50;;;21.60;47.40;20.50;101004.00;;;;5064654;28;20032;-70
2022/05/25 10:03:50;;;;;;;1.63;0.65;;;21.60;47.40;20.50;101017.00;;;;5039958;28;20489;-70
2022/05/25 10:06:51;;;;;;;3.10;0.65;;;21.60;47.30;20.50;101018.00;;;;5048752;28;20036;-70
2022/05/25 10:09:37;;;;;;;4.60;0.93;;;21.60;47.40;20.50;101019.00;;;;5050141;28;20617;-71
2022/05/25 10:13:01;;;;;;;1.92;0.70;;;21.60;47.50;20.50;101016.00;;;;5047770;28;20291;-70
2022/05/25 10:15:51;;;;;;;1.50;0.60;;;21.60;47.30;20.50;101015.00;;;;5067326;28;20418;-71
2022/05/25 10:18:41;;;;;;;1.27;0.70;;;21.70;47.50;20.50;101009.00;;;;5051443;28;20056;-70
2022/05/25 10:21:31;;;;;;;2.38;0.73;;;21.60;47.20;20.50;101011.00;;;;5062426;28;20044;-70
2022/05/25 10:24:31;;;;;;;0.98;0.55;;;21.70;47.20;20.60;101010.00;;;;5061973;28;20044;-70
2022/05/25 10:27:23;;;;;;;1.33;0.70;;;21.60;47.20;20.60;101021.00;;;;5063803;28;20207;-70
2022/05/25 10:37:08;;;;;;;3.28;1.10;;;21.70;47.30;20.60;101020.00;;;;5059604;28;20035;-70
2022/05/25 10:39:53;;;;;;;4.75;0.80;;;21.70;48.00;20.60;101026.00;;;;5060111;28;20402;-70
2022/05/25 10:42:44;;;;;;;1.60;0.85;;;21.70;47.30;20.60;101024.00;;;;5060828;28;20040;-70
2022/05/25 10:45:39;;;;;;;1.92;0.60;;;21.70;47.40;20.60;101023.00;;;;5060198;28;20067;-70
2022/05/25 10:48:49;;;;;;;0.73;0.60;;;21.70;47.10;20.60;101011.00;;;;5045391;28;20072;-70
2022/05/25 10:51:42;;;;;;;3.10;0.70;;;21.70;47.00;20.60;101021.00;;;;5063658;28;20135;-70
2022/05/25 10:54:47;;;;;;;1.48;0.60;;;21.70;47.00;20.60;101010.00;;;;5072802;28;20581;-70
2022/05/25 10:57:54;;;;;;;1.70;0.80;;;21.70;46.90;20.60;101010.00;;;;5045891;28;20576;-70
2022/05/25 11:01:17;;;;;;;0.60;0.60;;;21.70;46.70;20.60;101013.00;;;;5061903;28;20032;-70
2022/05/25 11:04:14;;;;;;;1.90;0.82;;;21.70;47.30;20.60;101011.00;;;;5064087;28;20056;-70
2022/05/25 11:07:29;;;;;;;1.75;0.50;;;21.80;46.60;20.60;101007.00;;;;5046079;28;20085;-70
2022/05/25 11:10:37;;;;;;;3.40;0.63;;;21.70;46.60;20.70;101008.00;;;;5049176;28;20505;-70
2022/05/25 11:13:45;;;;;;;1.85;0.65;;;21.80;46.50;20.70;101018.00;;;;5044932;28;21154;-70
2022/05/25 11:17:08;;;;;;;1.30;0.50;;;21.80;47.40;20.70;101016.00;;;;5062243;28;20048;-71
2022/05/25 11:20:21;;;;;;;1.10;0.50;;;21.80;46.50;20.70;101003.00;;;;5052652;28;20047;-70
2022/05/25 11:23:48;;;;;;;1.02;0.70;;;21.80;46.50;20.70;101021.00;;;;5049717;28;20044;-70
2022/05/25 11:27:14;;;;;;;1.45;0.77;;;21.80;46.40;20.70;101010.00;;;;5059935;28;20051;-70
2022/05/25 11:30:00;;;;;;;1.90;0.60;;;21.80;46.50;20.70;101013.00;;;;5044685;28;20438;-71
2022/05/25 11:33:18;;;;;;;1.20;0.50;;;21.80;46.30;20.70;101007.00;;;;5061348;28;20040;-70
2022/05/25 11:36:23;;;;;;;0.65;0.35;;;21.80;46.10;20.70;100997.00;;;;5071623;28;20256;-70
2022/05/25 11:39:17;;;;;;;2.13;0.52;;;21.80;46.10;20.70;100993.00;;;;5048451;28;20091;-70
2022/05/25 11:42:57;;;;;;;1.10;0.50;;;21.80;45.80;20.70;101013.00;;;;5059282;28;20044;-70
2022/05/25 11:46:38;;;;;;;3.17;0.60;;;21.80;46.40;20.70;101008.00;;;;5035012;28;20041;-70
2022/05/25 11:49:48;;;;;;;2.10;0.60;;;21.80;45.70;20.70;101004.00;;;;5061695;28;20040;-70
2022/05/25 11:53:28;;;;;;;1.73;0.55;;;21.90;45.70;20.70;101005.00;;;;5058328;28;20488;-70
2022/05/25 11:56:32;;;;;;;1.42;0.57;;;21.90;45.60;20.70;101013.00;;;;5059338;28;20085;-70
2022/05/25 11:59:48;;;;;;;0.55;0.43;;;21.80;45.50;20.70;101019.00;;;;5068378;28;20036;-70
2022/05/25 12:03:00;;;;;;;1.77;0.60;;;21.90;45.40;20.70;101002.00;;;;5063323;28;20572;-70
2022/05/25 12:06:06;;;;;;;1.33;0.50;;;21.90;45.50;20.70;101009.00;;;;5069165;28;20040;-70
2022/05/25 12:09:33;;;;;;;1.02;0.47;;;21.90;45.30;20.70;101009.00;;;;5046728;28;20047;-70
2022/05/25 12:12:41;;;;;;;2.13;0.52;;;21.80;44.90;20.70;101025.00;;;;5059043;28;20044;-70
2022/05/25 12:15:40;;;;;;;1.08;0.40;;;21.80;45.00;20.70;101014.00;;;;5045439;28;20036;-70
2022/05/25 12:18:52;;;;;;;1.33;0.40;;;21.80;45.00;20.70;101020.00;;;;5047292;28;20040;-70
2022/05/25 12:21:49;;;;;;;1.00;0.43;;;21.80;45.00;20.80;101010.00;;;;5037311;28;20048;-70
2022/05/25 12:24:41;;;;;;;2.35;0.52;;;21.80;45.30;20.80;101014.00;;;;5045211;28;20064;-70
2022/05/25 12:27:43;;;;;;;0.60;0.45;;;21.80;45.20;20.80;101017.00;;;;5061371;28;20045;-70
2022/05/25 12:30:38;;;;;;;1.10;0.45;;;21.90;45.30;20.80;101014.00;;;;5058439;28;20629;-70
2022/05/25 12:33:25;;;;;;;1.80;0.50;;;22.00;45.50;20.80;101019.00;;;;5047310;28;20119;-70
2022/05/25 12:36:11;;;;;;;1.77;0.60;;;21.90;45.50;20.80;101021.00;;;;5044042;28;20052;-70
2022/05/25 12:38:57;;;;;;;3.38;0.52;;;21.90;45.60;20.90;101026.00;;;;5044415;28;20044;-70
2022/05/25 12:41:43;;;;;;;0.85;0.40;;;21.90;45.90;20.90;101016.00;;;;5049044;28;20452;-70
2022/05/25 12:51:31;;;;;;;1.90;0.47;;;22.00;45.90;20.90;101006.00;;;;5059566;28;20051;-70
2022/05/25 12:54:31;;;;;;;2.28;0.80;;;22.00;45.70;20.90;101012.00;;;;5045804;28;20112;-70
2022/05/25 12:57:35;;;;;;;0.95;0.70;;;22.00;45.50;20.90;101020.00;;;;5066274;28;20035;-70
2022/05/25 13:00:25;;;;;;;0.55;0.55;;;22.00;45.40;20.90;101023.00;;;;5047019;28;20045;-70
2022/05/25 13:03:41;;;;;;;2.67;0.47;;;22.00;45.70;20.90;101026.00;;;;5064786;28;20040;-70
2022/05/25 13:06:33;;;;;;;2.60;0.50;;;22.00;45.70;20.90;101017.00;;;;5031929;28;20246;-70
2022/05/25 13:09:42;;;;;;;2.25;0.70;;;22.00;46.00;20.90;101011.00;;;;5061558;28;20387;-70
2022/05/25 13:12:40;;;;;;;2.33;0.60;;;22.00;46.10;20.90;101012.00;;;;5046253;28;20040;-71
2022/05/25 13:15:37;;;;;;;1.35;0.45;;;22.00;46.10;20.90;101015.00;;;;5060571;28;20063;-71
2022/05/25 13:18:53;;;;;;;7.78;0.88;;;22.10;46.30;21.00;101004.00;;;;5066107;28;20059;-71